Terminal Aerodrome Forecast
Issued by NWS Charleston, WV

Current Version | Previous Version | Graphics & Text | Print | Product List | Glossary On
Versions: 1 2 3 4 5 6 7 8 9 10 11 12 13 14 15 16 17 18 19 20 21 22 23 24 25 26 27 28
000
FTUS41 KRLX 221100
TAFEKN
TAF
KEKN 221126Z 2212/2312 00000KT 5SM BR BKN025
      TEMPO 2212/2214 -SHRA OVC020
     FM221400 VRB03KT P6SM BKN025 BKN080
     FM221700 27004KT 4SM +TSRA BR BKN020CB
     FM230100 00000KT 4SM BR BKN025
     FM230800 00000KT 2SM BR BKN010=

USA.gov is the U.S. government's official web portal to all federal, state and local government web resources and services.